Airfield :
LOGIN :

Register | Disclaimer

   EN    FR    IT 

 










Legend :    VFR   Marginal VFR   IFR   Intensive IFR   Very Intensive IFR
Visi :
Ceiling :
>= 8 km
>= 3000ft
5 to 8 km
1000 to 3000 ft
1500m to 5 km
500 to 1000 ft
800 to 1500m
200 to 500 ft
< 800m
< 200 ft
Symbols :   Thunderstorms  Fog  Heavy snow  Heavy precipitations  Wind > 20 kt
SIGMETs :     Misc.  Thunderstorms  Icing  Turbulence  Mountain Waves  Volcanic Ashes







- Airport Elevation : 423 ft
- IATA code : PIS
- Download approach charts


LFBI - Poitiers

CURRENT METAR :
  • 261230Z AUTO 14005KT 050V190 CAVOK 29/16 Q1013 NOSIG

EXPIRED METARs :
  • 261200Z AUTO 15005KT 080V210 CAVOK 28/17 Q1013 NOSIG
  • 261130Z AUTO 14005KT 100V200 CAVOK 28/15 Q1013 NOSIG
  • 261100Z AUTO 16005KT 130V200 CAVOK 27/15 Q1013 NOSIG
  • 261030Z AUTO VRB05KT CAVOK 26/15 Q1013 NOSIG
  • 261000Z AUTO 15004KT 050V200 CAVOK 26/16 Q1013 NOSIG

TAF TAF LFBI
Valid from the 26 at 12:00 until the 27 at 12:00 UTC


261100Z 2612/2712 14008KT CAVOK
BECMG 2620/2622 20010KT
PROB30 2622/2624 25015G25KT SCT050CB
PROB30
TEMPO 2705/2710 BKN014
No reported NOTAMs for that airfield.



MET'MAP, your aeronautical weather chart ! - Copyright ORBIFLY December 2007 - Disclaimer

ORBIFLY MET'MAP TEAM :

Programming & Development : Alexandra Zaïnal
Concept & Development : Baudouin d'Aumeries
Co-Development & Prog : Marc-Olivier Méhu
Technical & hardware support : Manuel Goepfert

Contact : metmap@orbifly.com




SOURCES & CREDITS :

   NOAA